createdAt,value
2017-09-16T00:00:23.133Z,0.00
2017-09-16T00:01:23.098Z,0.00
2017-09-16T00:02:23.063Z,0.00
2017-09-16T00:03:23.028Z,0.00
2017-09-16T00:04:22.992Z,0.00
2017-09-16T00:05:22.957Z,0.00
2017-09-16T00:06:22.922Z,0.00
2017-09-16T00:07:22.887Z,0.00
2017-09-16T00:08:22.851Z,0.00
2017-09-16T00:09:22.817Z,0.00
2017-09-16T00:10:22.782Z,0.00
2017-09-16T00:11:22.747Z,0.00
2017-09-16T00:12:22.711Z,0.00
2017-09-16T00:13:22.676Z,0.00
2017-09-16T00:14:22.641Z,0.00
2017-09-16T00:15:22.607Z,0.00
2017-09-16T00:16:22.570Z,0.00
2017-09-16T00:17:22.535Z,0.00
2017-09-16T00:18:22.499Z,0.00
2017-09-16T00:19:22.464Z,0.00
2017-09-16T00:20:22.429Z,0.00
2017-09-16T00:21:22.392Z,0.00
2017-09-16T00:22:22.358Z,0.00
2017-09-16T00:23:22.323Z,0.00
2017-09-16T00:24:22.287Z,0.00
2017-09-16T00:25:22.253Z,0.00
2017-09-16T00:26:22.217Z,0.00
2017-09-16T00:27:22.186Z,0.00
2017-09-16T00:28:22.147Z,0.00
2017-09-16T00:29:22.110Z,0.00
2017-09-16T00:30:22.074Z,0.00
2017-09-16T00:31:22.040Z,0.00
2017-09-16T00:32:22.005Z,0.00
2017-09-16T00:33:21.968Z,0.00
2017-09-16T00:34:21.933Z,0.00
2017-09-16T00:35:21.897Z,0.00
2017-09-16T00:36:21.863Z,0.00
2017-09-16T00:37:21.827Z,0.00
2017-09-16T00:38:21.792Z,0.00
2017-09-16T00:39:21.755Z,0.00
2017-09-16T00:40:21.721Z,0.00
2017-09-16T00:41:21.684Z,0.00
2017-09-16T00:42:21.651Z,0.00
2017-09-16T00:43:21.614Z,0.00
2017-09-16T00:44:21.579Z,0.00
2017-09-16T00:45:21.543Z,0.00
2017-09-16T00:46:21.507Z,0.00
2017-09-16T00:47:21.472Z,0.00
2017-09-16T00:48:21.436Z,0.00
2017-09-16T00:49:21.400Z,0.00
2017-09-16T00:50:21.365Z,0.00
2017-09-16T00:51:21.328Z,0.00
2017-09-16T00:52:21.293Z,0.00
2017-09-16T00:53:21.257Z,0.00
2017-09-16T00:54:21.222Z,0.00
2017-09-16T00:55:21.185Z,0.00
2017-09-16T00:56:21.151Z,0.00
2017-09-16T00:57:21.116Z,0.00
2017-09-16T00:58:21.077Z,0.00
2017-09-16T00:59:21.039Z,0.00
2017-09-16T01:00:21.024Z,0.00
2017-09-16T01:01:20.970Z,0.00
2017-09-16T01:02:20.937Z,0.00
2017-09-16T01:03:20.900Z,0.00
2017-09-16T01:04:20.866Z,0.00
2017-09-16T01:05:20.830Z,0.00
2017-09-16T01:06:20.793Z,0.00
2017-09-16T01:07:20.757Z,0.00
2017-09-16T01:08:20.723Z,0.00
2017-09-16T01:09:20.686Z,0.00
2017-09-16T01:10:20.651Z,0.00
2017-09-16T01:11:20.616Z,0.00
2017-09-16T01:12:20.580Z,0.00
2017-09-16T01:13:20.544Z,0.00
2017-09-16T01:14:20.508Z,0.00
2017-09-16T01:15:20.473Z,0.00
2017-09-16T01:16:20.439Z,0.00
2017-09-16T01:17:20.400Z,0.00
2017-09-16T01:18:20.366Z,0.00
2017-09-16T01:19:20.330Z,0.00
2017-09-16T01:20:20.295Z,0.00
2017-09-16T01:21:20.258Z,0.00
2017-09-16T01:22:20.222Z,0.00
2017-09-16T01:23:20.188Z,0.00
2017-09-16T01:24:20.151Z,0.00
2017-09-16T01:25:20.116Z,0.00
2017-09-16T01:26:20.081Z,0.00
2017-09-16T01:27:20.046Z,0.00
2017-09-16T01:28:20.009Z,0.00
2017-09-16T01:29:19.973Z,0.00
2017-09-16T01:30:19.938Z,0.00
2017-09-16T01:31:19.904Z,0.00
2017-09-16T01:32:19.866Z,0.00
2017-09-16T01:33:19.831Z,0.00
2017-09-16T01:34:19.797Z,0.00
2017-09-16T01:35:19.762Z,0.00
2017-09-16T01:36:19.727Z,0.00
2017-09-16T01:37:19.690Z,0.00
2017-09-16T01:38:19.655Z,0.00
2017-09-16T01:39:19.619Z,0.00
2017-09-16T01:40:19.584Z,0.00
2017-09-16T01:41:19.547Z,0.00
2017-09-16T01:42:19.513Z,0.00
2017-09-16T01:43:19.479Z,0.00
2017-09-16T01:44:19.441Z,0.00
2017-09-16T01:45:19.407Z,0.00
2017-09-16T01:46:19.371Z,0.00
2017-09-16T01:47:19.335Z,0.00
2017-09-16T01:48:19.300Z,0.00
2017-09-16T01:49:19.262Z,0.00
2017-09-16T01:50:19.229Z,0.00
2017-09-16T01:51:19.193Z,0.00
2017-09-16T01:52:19.158Z,0.00
2017-09-16T01:53:19.122Z,0.00
2017-09-16T01:54:19.089Z,0.00
2017-09-16T01:55:19.050Z,0.00
2017-09-16T01:56:19.016Z,0.00
2017-09-16T01:57:18.978Z,0.00
2017-09-16T01:58:18.943Z,0.00
2017-09-16T01:59:18.926Z,0.00
2017-09-16T02:00:18.872Z,0.00
2017-09-16T02:01:18.836Z,0.00
2017-09-16T02:02:18.806Z,0.00
2017-09-16T02:03:18.772Z,0.00
2017-09-16T02:04:18.729Z,0.00
2017-09-16T02:05:18.693Z,0.00
2017-09-16T02:06:18.657Z,0.00
2017-09-16T02:07:18.622Z,0.00
2017-09-16T02:08:18.587Z,0.00
2017-09-16T02:09:18.548Z,0.00
2017-09-16T02:10:18.514Z,0.00
2017-09-16T02:11:18.664Z,0.00
2017-09-16T02:12:18.443Z,0.00
2017-09-16T02:13:18.406Z,0.00
2017-09-16T02:14:18.363Z,0.00
2017-09-16T02:15:18.336Z,0.00
2017-09-16T02:16:18.298Z,0.00
2017-09-16T02:17:18.263Z,0.00
2017-09-16T02:18:18.226Z,0.00
2017-09-16T02:19:18.189Z,0.00
2017-09-16T02:20:18.154Z,0.00
2017-09-16T02:21:18.118Z,0.00
2017-09-16T02:22:18.081Z,0.00
2017-09-16T02:23:18.237Z,0.00
2017-09-16T02:24:18.010Z,0.00
2017-09-16T02:25:17.973Z,0.00
2017-09-16T02:26:18.239Z,0.00
2017-09-16T02:27:17.901Z,0.00
2017-09-16T02:28:17.866Z,0.00
2017-09-16T02:29:17.829Z,0.00
2017-09-16T02:30:17.793Z,0.00
2017-09-16T02:31:17.758Z,0.00
2017-09-16T02:32:17.722Z,0.00
2017-09-16T02:33:17.687Z,0.00
2017-09-16T02:34:17.649Z,0.00
2017-09-16T02:35:17.614Z,0.00
2017-09-16T02:36:17.577Z,0.00
2017-09-16T02:37:17.543Z,0.00
2017-09-16T02:38:17.504Z,0.00
2017-09-16T02:39:17.468Z,0.00
2017-09-16T02:40:17.432Z,0.00
2017-09-16T02:41:17.396Z,0.00
2017-09-16T02:42:17.360Z,0.00
2017-09-16T02:43:17.325Z,0.00
2017-09-16T02:44:17.288Z,0.00
2017-09-16T02:45:17.253Z,0.00
2017-09-16T02:46:17.215Z,0.00
2017-09-16T02:47:17.178Z,0.00
2017-09-16T02:48:17.144Z,0.00
2017-09-16T02:49:17.106Z,0.00
2017-09-16T02:50:17.072Z,0.00
2017-09-16T02:51:17.034Z,0.00
2017-09-16T02:52:16.996Z,0.00
2017-09-16T02:53:16.960Z,0.00
2017-09-16T02:54:16.925Z,0.00
2017-09-16T02:55:16.888Z,0.00
2017-09-16T02:56:16.853Z,0.00
2017-09-16T02:57:16.816Z,0.00
2017-09-16T02:58:16.782Z,0.00
2017-09-16T02:59:16.743Z,0.00
2017-09-16T03:00:16.707Z,0.00
2017-09-16T03:01:16.670Z,0.00
2017-09-16T03:02:16.633Z,0.00
2017-09-16T03:03:16.599Z,0.00
2017-09-16T03:04:16.562Z,0.00
2017-09-16T03:05:16.527Z,0.00
2017-09-16T03:06:16.489Z,0.00
2017-09-16T03:07:16.457Z,0.00
2017-09-16T03:08:16.418Z,0.00
2017-09-16T03:09:16.391Z,0.00
2017-09-16T03:10:16.345Z,0.00
2017-09-16T03:11:16.310Z,0.00
2017-09-16T03:12:16.273Z,0.00
2017-09-16T03:13:16.236Z,0.00
2017-09-16T03:14:16.200Z,0.00
2017-09-16T03:15:16.165Z,0.00
2017-09-16T03:16:16.129Z,0.00
2017-09-16T03:17:16.092Z,0.00
2017-09-16T03:18:16.056Z,0.00
2017-09-16T03:19:16.020Z,0.00
2017-09-16T03:20:15.986Z,0.00
2017-09-16T03:21:15.948Z,0.00
2017-09-16T03:22:15.912Z,0.00
2017-09-16T03:23:15.882Z,0.00
2017-09-16T03:24:15.841Z,0.00
2017-09-16T03:25:16.024Z,0.00
2017-09-16T03:26:15.770Z,0.00
2017-09-16T03:27:15.727Z,0.00
2017-09-16T03:28:15.697Z,0.00
2017-09-16T03:29:15.662Z,0.00
2017-09-16T03:30:15.628Z,0.00
2017-09-16T03:31:15.589Z,0.00
2017-09-16T03:32:15.554Z,0.00
2017-09-16T03:33:15.524Z,0.00
2017-09-16T03:34:15.482Z,0.00
2017-09-16T03:35:15.450Z,0.00
2017-09-16T03:36:15.413Z,0.00
2017-09-16T03:37:15.374Z,0.00
2017-09-16T03:38:15.341Z,0.00
2017-09-16T03:39:15.304Z,0.00
2017-09-16T03:40:15.268Z,0.00
2017-09-16T03:41:15.233Z,0.00
2017-09-16T03:42:15.195Z,0.00
2017-09-16T03:43:15.161Z,0.00
2017-09-16T03:44:15.125Z,0.00
2017-09-16T03:45:15.088Z,0.00
2017-09-16T03:46:15.053Z,0.00
2017-09-16T03:47:15.017Z,0.00
2017-09-16T03:48:14.983Z,0.00
2017-09-16T03:49:14.947Z,0.00
2017-09-16T03:50:14.910Z,0.00
2017-09-16T03:51:14.872Z,0.00
2017-09-16T03:52:14.840Z,0.00
2017-09-16T03:53:14.803Z,0.00
2017-09-16T03:54:14.767Z,0.00
2017-09-16T03:55:14.733Z,0.00
2017-09-16T03:56:14.695Z,0.00
2017-09-16T03:57:14.659Z,0.00
2017-09-16T03:58:14.624Z,0.00
2017-09-16T03:59:14.588Z,0.00
2017-09-16T04:00:14.553Z,0.00
2017-09-16T04:01:14.517Z,0.00
2017-09-16T04:02:14.481Z,0.00
2017-09-16T04:03:14.444Z,0.00
2017-09-16T04:04:14.413Z,0.00
2017-09-16T04:05:14.373Z,0.00
2017-09-16T04:06:14.337Z,0.00
2017-09-16T04:07:14.302Z,0.00
2017-09-16T04:08:14.266Z,0.00
2017-09-16T04:09:14.229Z,0.00
2017-09-16T04:10:14.193Z,0.00
2017-09-16T04:11:14.236Z,0.00
2017-09-16T04:12:14.122Z,0.00
2017-09-16T04:13:14.082Z,0.00
2017-09-16T04:14:14.050Z,0.00
2017-09-16T04:15:14.014Z,0.00
2017-09-16T04:16:13.983Z,0.00
2017-09-16T04:17:13.942Z,0.00
2017-09-16T04:18:13.906Z,0.00
2017-09-16T04:19:13.870Z,0.00
2017-09-16T04:20:13.836Z,0.00
2017-09-16T04:21:13.797Z,0.00
2017-09-16T04:22:13.761Z,0.00
2017-09-16T04:23:13.726Z,0.00
2017-09-16T04:24:13.691Z,0.00
2017-09-16T04:25:13.653Z,0.00
2017-09-16T04:26:13.620Z,0.00
2017-09-16T04:27:13.581Z,0.00
2017-09-16T04:28:13.544Z,0.00
2017-09-16T04:29:13.507Z,0.00
2017-09-16T04:30:13.472Z,0.00
2017-09-16T04:31:13.437Z,0.00
2017-09-16T04:32:13.402Z,0.00
2017-09-16T04:33:13.365Z,0.00
2017-09-16T04:34:13.330Z,0.00
2017-09-16T04:35:13.295Z,0.00
2017-09-16T04:36:13.255Z,0.00
2017-09-16T04:37:13.217Z,0.00
2017-09-16T04:38:13.183Z,0.00
2017-09-16T04:39:13.174Z,0.00
2017-09-16T04:40:13.110Z,0.00
2017-09-16T04:41:13.073Z,0.00
2017-09-16T04:42:13.037Z,0.00
2017-09-16T04:43:13.003Z,0.00
2017-09-16T04:44:12.966Z,4.00
2017-09-16T04:45:12.930Z,4.00
2017-09-16T04:46:12.893Z,4.00
2017-09-16T04:47:12.891Z,4.00
2017-09-16T04:48:12.822Z,4.00
2017-09-16T04:49:12.784Z,4.00
2017-09-16T04:50:12.749Z,4.00
2017-09-16T04:51:12.713Z,8.00
2017-09-16T04:52:12.676Z,8.00
2017-09-16T04:53:12.641Z,12.00
2017-09-16T04:54:12.604Z,12.00
2017-09-16T04:55:12.569Z,12.00
2017-09-16T04:56:12.684Z,16.00
2017-09-16T04:57:12.496Z,20.00
2017-09-16T04:58:12.461Z,24.00
2017-09-16T04:59:12.423Z,28.00
2017-09-16T05:00:12.388Z,32.00
2017-09-16T05:01:12.351Z,36.00
2017-09-16T05:02:12.316Z,40.00
2017-09-16T05:03:12.280Z,44.00
2017-09-16T05:04:12.243Z,48.00
2017-09-16T05:05:12.205Z,60.00
2017-09-16T05:06:12.173Z,64.00
2017-09-16T05:07:12.134Z,72.00
2017-09-16T05:08:12.098Z,84.00
2017-09-16T05:09:12.061Z,92.00
2017-09-16T05:10:12.025Z,100.00
2017-09-16T05:11:11.988Z,116.00
2017-09-16T05:12:11.954Z,128.00
2017-09-16T05:13:11.918Z,140.00
2017-09-16T05:14:11.881Z,156.00
2017-09-16T05:15:11.846Z,172.00
2017-09-16T05:16:11.810Z,188.00
2017-09-16T05:17:11.774Z,204.00
2017-09-16T05:18:11.735Z,220.00
2017-09-16T05:19:11.698Z,244.00
2017-09-16T05:20:11.669Z,268.00
2017-09-16T05:21:11.627Z,288.00
2017-09-16T05:22:11.590Z,316.00
2017-09-16T05:23:11.554Z,340.00
2017-09-16T05:24:11.520Z,368.00
2017-09-16T05:25:11.483Z,400.00
2017-09-16T05:26:11.447Z,444.00
2017-09-16T05:27:11.410Z,492.00
2017-09-16T05:28:11.374Z,532.00
2017-09-16T05:29:11.338Z,572.00
2017-09-16T05:30:11.307Z,632.00
2017-09-16T05:31:11.265Z,676.00
2017-09-16T05:32:11.228Z,716.00
2017-09-16T05:33:11.193Z,756.00
2017-09-16T05:34:11.157Z,796.00
2017-09-16T05:35:11.120Z,832.00
2017-09-16T05:36:11.697Z,880.00
2017-09-16T05:37:11.049Z,920.00
2017-09-16T05:38:11.013Z,940.00
2017-09-16T05:39:10.977Z,956.00
2017-09-16T05:40:10.941Z,1040.00
2017-09-16T05:41:10.904Z,1100.00
2017-09-16T05:42:10.868Z,1144.00
2017-09-16T05:43:10.833Z,1172.00
2017-09-16T05:44:10.797Z,1148.00
2017-09-16T05:45:10.763Z,1240.00
2017-09-16T05:46:10.726Z,1348.00
2017-09-16T05:47:10.693Z,1392.00
2017-09-16T05:48:10.654Z,1432.00
2017-09-16T05:49:10.616Z,1480.00
2017-09-16T05:50:10.584Z,1344.00
2017-09-16T05:51:10.549Z,1344.00
2017-09-16T05:52:10.509Z,1332.00
2017-09-16T05:53:10.478Z,1352.00
2017-09-16T05:54:10.441Z,1400.00
2017-09-16T05:55:10.407Z,1480.00
2017-09-16T05:56:10.378Z,1640.00
2017-09-16T05:57:10.336Z,1844.00
2017-09-16T05:58:10.307Z,1968.00
2017-09-16T05:59:10.267Z,2008.00
2017-09-16T06:00:10.232Z,2056.00
2017-09-16T06:01:10.196Z,2096.00
2017-09-16T06:02:10.162Z,2140.00
2017-09-16T06:03:10.128Z,2184.00
2017-09-16T06:04:10.093Z,2240.00
2017-09-16T06:05:10.058Z,2292.00
2017-09-16T06:06:10.023Z,2336.00
2017-09-16T06:07:09.989Z,2368.00
2017-09-16T06:08:09.955Z,2424.00
2017-09-16T06:09:09.921Z,2488.00
2017-09-16T06:10:09.886Z,2536.00
2017-09-16T06:11:09.852Z,2584.00
2017-09-16T06:12:09.818Z,2632.00
2017-09-16T06:13:09.794Z,2704.00
2017-09-16T06:14:09.749Z,2740.00
2017-09-16T06:15:09.716Z,2796.00
2017-09-16T06:16:09.682Z,2840.00
2017-09-16T06:17:09.647Z,2912.00
2017-09-16T06:18:09.613Z,2988.00
2017-09-16T06:19:09.579Z,3052.00
2017-09-16T06:20:09.546Z,3100.00
2017-09-16T06:21:09.517Z,3152.00
2017-09-16T06:22:09.479Z,3196.00
2017-09-16T06:23:09.446Z,3248.00
2017-09-16T06:24:09.410Z,3284.00
2017-09-16T06:25:09.501Z,3320.00
2017-09-16T06:26:09.346Z,3364.00
2017-09-16T06:27:09.311Z,3412.00
2017-09-16T06:28:09.285Z,3452.00
2017-09-16T06:29:09.246Z,3476.00
2017-09-16T06:30:09.213Z,3520.00
2017-09-16T06:31:09.178Z,3588.00
2017-09-16T06:32:09.146Z,3620.00
2017-09-16T06:33:09.114Z,3648.00
2017-09-16T06:34:09.079Z,3684.00
2017-09-16T06:35:09.047Z,3716.00
2017-09-16T06:36:09.027Z,3788.00
2017-09-16T06:37:08.983Z,3880.00
2017-09-16T06:38:08.949Z,3916.00
2017-09-16T06:39:08.917Z,3992.00
2017-09-16T06:40:08.885Z,4044.00
2017-09-16T06:41:08.852Z,4072.00
2017-09-16T06:42:08.819Z,4152.00
2017-09-16T06:43:08.787Z,4216.00
2017-09-16T06:44:09.228Z,4268.00
2017-09-16T06:45:08.724Z,4348.00
2017-09-16T06:46:08.692Z,4416.00
2017-09-16T06:47:08.660Z,4496.00
2017-09-16T06:48:08.627Z,4532.00
2017-09-16T06:49:08.594Z,4588.00
2017-09-16T06:50:08.557Z,4660.00
2017-09-16T06:51:08.532Z,4728.00
2017-09-16T06:52:08.501Z,4796.00
2017-09-16T06:53:08.468Z,4840.00
2017-09-16T06:54:08.449Z,4900.00
2017-09-16T06:55:08.419Z,4968.00
2017-09-16T06:56:08.375Z,5012.00
2017-09-16T06:57:08.343Z,5084.00
2017-09-16T06:58:08.313Z,5208.00
2017-09-16T06:59:08.283Z,5324.00
2017-09-16T07:00:08.257Z,5412.00
2017-09-16T07:01:08.220Z,5476.00
2017-09-16T07:02:08.190Z,5552.00
2017-09-16T07:03:08.159Z,5580.00
2017-09-16T07:04:08.130Z,5648.00
2017-09-16T07:05:08.099Z,5736.00
2017-09-16T07:06:08.069Z,5812.00
2017-09-16T07:07:08.040Z,5924.00
2017-09-16T07:08:08.180Z,5988.00
2017-09-16T07:09:07.984Z,6076.00
2017-09-16T07:10:07.953Z,6156.00
2017-09-16T07:11:07.923Z,6212.00
2017-09-16T07:12:07.894Z,6284.00
2017-09-16T07:13:07.866Z,6368.00
2017-09-16T07:14:07.837Z,6428.00
2017-09-16T07:15:07.811Z,6552.00
2017-09-16T07:16:07.778Z,6648.00
2017-09-16T07:17:08.003Z,6712.00
2017-09-16T07:18:07.722Z,6868.00
2017-09-16T07:19:07.696Z,6972.00
2017-09-16T07:20:07.666Z,6952.00
2017-09-16T07:21:07.638Z,6964.00
2017-09-16T07:22:07.612Z,7076.00
2017-09-16T07:23:07.583Z,7056.00
2017-09-16T07:24:07.555Z,7120.00
2017-09-16T07:25:07.526Z,7060.00
2017-09-16T07:26:07.500Z,7072.00
2017-09-16T07:27:07.480Z,7076.00
2017-09-16T07:28:07.451Z,7088.00
2017-09-16T07:29:07.418Z,7144.00
2017-09-16T07:30:07.393Z,7192.00
2017-09-16T07:31:07.363Z,7232.00
2017-09-16T07:32:07.338Z,7276.00
2017-09-16T07:33:07.313Z,7504.00
2017-09-16T07:34:07.284Z,7576.00
2017-09-16T07:35:07.290Z,7636.00
2017-09-16T07:36:07.234Z,7676.00
2017-09-16T07:37:07.206Z,7692.00
2017-09-16T07:38:07.184Z,7772.00
2017-09-16T07:39:07.156Z,7804.00
2017-09-16T07:40:07.132Z,7864.00
2017-09-16T07:41:07.104Z,7916.00
2017-09-16T07:42:07.080Z,7960.00
2017-09-16T07:43:07.059Z,8004.00
2017-09-16T07:44:07.027Z,8036.00
2017-09-16T07:45:07.003Z,8096.00
2017-09-16T07:46:06.981Z,8204.00
2017-09-16T07:47:06.957Z,8268.00
2017-09-16T07:48:06.933Z,8400.00
2017-09-16T07:49:06.907Z,8408.00
2017-09-16T07:50:07.796Z,8480.00
2017-09-16T07:51:06.858Z,8556.00
2017-09-16T07:52:06.836Z,8624.00
2017-09-16T07:53:06.812Z,8728.00
2017-09-16T07:54:06.788Z,8816.00
2017-09-16T07:55:06.765Z,8972.00
2017-09-16T07:56:06.740Z,9044.00
2017-09-16T07:57:06.717Z,9040.00
2017-09-16T07:58:06.693Z,9204.00
2017-09-16T07:59:06.672Z,9288.00
2017-09-16T08:00:06.650Z,9356.00
2017-09-16T08:01:06.625Z,9496.00
2017-09-16T08:02:06.603Z,9620.00
2017-09-16T08:03:06.581Z,9604.00
2017-09-16T08:04:06.558Z,9792.00
2017-09-16T08:05:06.536Z,9864.00
2017-09-16T08:06:06.513Z,9928.00
2017-09-16T08:07:06.490Z,9912.00
2017-09-16T08:08:06.469Z,10032.00
2017-09-16T08:09:06.445Z,10064.00
2017-09-16T08:10:06.424Z,10168.00
2017-09-16T08:11:06.403Z,10280.00
2017-09-16T08:12:06.380Z,10376.00
2017-09-16T08:13:06.358Z,10452.00
2017-09-16T08:14:06.335Z,10576.00
2017-09-16T08:15:06.315Z,10624.00
2017-09-16T08:16:06.293Z,10696.00
2017-09-16T08:17:06.272Z,10800.00
2017-09-16T08:18:06.249Z,10872.00
2017-09-16T08:19:06.229Z,10920.00
2017-09-16T08:20:06.209Z,11024.00
2017-09-16T08:21:06.188Z,11160.00
2017-09-16T08:22:06.166Z,11312.00
2017-09-16T08:23:06.146Z,11444.00
2017-09-16T08:24:06.124Z,11620.00
2017-09-16T08:25:06.103Z,11748.00
2017-09-16T08:26:06.083Z,11816.00
2017-09-16T08:27:06.062Z,11856.00
2017-09-16T08:28:06.042Z,11912.00
2017-09-16T08:29:06.020Z,12012.00
2017-09-16T08:30:06.003Z,12072.00
2017-09-16T08:31:05.981Z,12152.00
2017-09-16T08:32:05.963Z,12368.00
2017-09-16T08:33:05.940Z,12352.00
2017-09-16T08:34:05.920Z,12500.00
2017-09-16T08:35:05.901Z,12496.00
2017-09-16T08:36:05.882Z,12704.00
2017-09-16T08:37:05.861Z,12800.00
2017-09-16T08:38:06.031Z,12872.00
2017-09-16T08:39:05.822Z,12824.00
2017-09-16T08:40:05.804Z,12800.00
2017-09-16T08:41:05.784Z,13300.00
2017-09-16T08:42:05.764Z,13632.00
2017-09-16T08:43:05.745Z,13952.00
2017-09-16T08:44:05.729Z,14176.00
2017-09-16T08:45:05.707Z,14368.00
2017-09-16T08:46:05.689Z,14624.00
2017-09-16T08:47:05.671Z,14912.00
2017-09-16T08:48:05.664Z,14880.00
2017-09-16T08:49:05.633Z,15264.00
2017-09-16T08:50:05.616Z,6536.00
2017-09-16T08:51:05.598Z,15392.00
2017-09-16T08:52:05.579Z,15552.00
2017-09-16T08:53:05.561Z,15584.00
2017-09-16T08:54:05.545Z,15648.00
2017-09-16T08:55:05.525Z,12488.00
2017-09-16T08:56:05.507Z,15936.00
2017-09-16T08:57:05.487Z,15424.00
2017-09-16T08:58:05.468Z,15968.00
2017-09-16T08:59:05.452Z,11288.00
2017-09-16T09:00:05.437Z,16896.00
2017-09-16T09:01:05.415Z,17120.00
2017-09-16T09:02:05.399Z,16928.00
2017-09-16T09:03:05.380Z,16608.00
2017-09-16T09:04:05.363Z,17600.00
2017-09-16T09:05:05.345Z,11484.00
2017-09-16T09:06:05.326Z,16704.00
2017-09-16T09:07:05.308Z,18176.00
2017-09-16T09:08:05.291Z,5984.00
2017-09-16T09:09:05.271Z,5660.00
2017-09-16T09:10:05.256Z,17888.00
2017-09-16T09:11:05.238Z,17728.00
2017-09-16T09:12:05.219Z,17888.00
2017-09-16T09:13:05.297Z,17856.00
2017-09-16T09:14:05.183Z,18400.00
2017-09-16T09:15:05.166Z,18784.00
2017-09-16T09:16:05.147Z,18944.00
2017-09-16T09:17:05.129Z,18176.00
2017-09-16T09:18:05.111Z,20160.00
2017-09-16T09:19:05.093Z,20032.00
2017-09-16T09:20:05.076Z,19328.00
2017-09-16T09:21:05.056Z,15104.00
2017-09-16T09:22:05.040Z,21824.00
2017-09-16T09:23:05.021Z,6420.00
2017-09-16T09:24:05.005Z,6360.00
2017-09-16T09:25:04.986Z,22048.00
2017-09-16T09:26:04.967Z,21760.00
2017-09-16T09:27:04.950Z,7160.00
2017-09-16T09:28:04.931Z,22080.00
2017-09-16T09:29:04.913Z,6912.00
2017-09-16T09:30:04.895Z,6272.00
2017-09-16T09:31:04.876Z,23040.00
2017-09-16T09:32:04.859Z,21696.00
2017-09-16T09:33:04.838Z,7124.00
2017-09-16T09:34:04.818Z,8100.00
2017-09-16T09:35:04.801Z,25120.00
2017-09-16T09:36:04.783Z,25632.00
2017-09-16T09:37:04.761Z,11684.00
2017-09-16T09:38:04.743Z,12460.00
2017-09-16T09:39:04.724Z,25440.00
2017-09-16T09:40:04.704Z,25376.00
2017-09-16T09:41:04.687Z,25440.00
2017-09-16T09:42:04.665Z,25536.00
2017-09-16T09:43:04.657Z,26560.00
2017-09-16T09:44:04.630Z,26176.00
2017-09-16T09:45:04.609Z,25280.00
2017-09-16T09:46:04.591Z,25568.00
2017-09-16T09:47:04.574Z,25440.00
2017-09-16T09:48:04.556Z,25472.00
2017-09-16T09:49:04.537Z,25408.00
2017-09-16T09:50:04.519Z,25184.00
2017-09-16T09:51:04.504Z,25792.00
2017-09-16T09:52:04.488Z,25504.00
2017-09-16T09:53:04.466Z,25664.00
2017-09-16T09:54:04.449Z,26048.00
2017-09-16T09:55:04.433Z,26176.00
2017-09-16T09:56:04.416Z,26112.00
2017-09-16T09:57:04.397Z,26656.00
2017-09-16T09:58:04.380Z,27072.00
2017-09-16T09:59:04.365Z,27168.00
2017-09-16T10:00:04.350Z,27616.00
2017-09-16T10:01:04.332Z,26848.00
2017-09-16T10:02:04.315Z,29184.00
2017-09-16T10:03:04.294Z,32928.00
2017-09-16T10:04:04.284Z,31904.00
2017-09-16T10:05:04.265Z,31616.00
2017-09-16T10:06:04.250Z,31104.00
2017-09-16T10:07:04.236Z,30752.00
2017-09-16T10:08:04.219Z,30848.00
2017-09-16T10:09:04.201Z,29440.00
2017-09-16T10:10:04.187Z,29120.00
2017-09-16T10:11:04.175Z,29184.00
2017-09-16T10:12:04.157Z,29760.00
2017-09-16T10:13:04.241Z,31008.00
2017-09-16T10:14:04.125Z,31328.00
2017-09-16T10:15:04.112Z,30336.00
2017-09-16T10:16:04.095Z,31680.00
2017-09-16T10:17:04.080Z,33120.00
2017-09-16T10:18:04.066Z,32704.00
2017-09-16T10:19:04.052Z,32704.00
2017-09-16T10:20:04.037Z,32640.00
2017-09-16T10:21:04.021Z,32480.00
2017-09-16T10:22:04.005Z,31968.00
2017-09-16T10:23:03.992Z,31616.00
2017-09-16T10:24:03.977Z,31712.00
2017-09-16T10:25:03.960Z,32032.00
2017-09-16T10:26:03.949Z,33536.00
2017-09-16T10:27:03.933Z,33504.00
2017-09-16T10:28:03.919Z,32768.00
2017-09-16T10:29:03.905Z,32352.00
2017-09-16T10:30:03.891Z,33376.00
2017-09-16T10:31:03.876Z,33760.00
2017-09-16T10:32:03.866Z,33856.00
2017-09-16T10:33:03.847Z,34240.00
2017-09-16T10:34:03.836Z,36416.00
2017-09-16T10:35:03.821Z,35616.00
2017-09-16T10:36:03.807Z,35456.00
2017-09-16T10:37:03.794Z,35904.00
2017-09-16T10:38:03.781Z,30464.00
2017-09-16T10:39:03.770Z,35712.00
2017-09-16T10:40:03.753Z,12324.00
2017-09-16T10:41:03.738Z,36704.00
2017-09-16T10:42:03.724Z,35776.00
2017-09-16T10:43:03.808Z,35680.00
2017-09-16T10:44:03.697Z,35840.00
2017-09-16T10:45:03.682Z,9348.00
2017-09-16T10:46:03.810Z,14924.00
2017-09-16T10:47:03.656Z,35840.00
2017-09-16T10:48:03.642Z,36096.00
2017-09-16T10:49:03.627Z,37152.00
2017-09-16T10:50:03.614Z,6152.00
2017-09-16T10:51:03.597Z,6264.00
2017-09-16T10:52:03.585Z,6784.00
2017-09-16T10:53:03.568Z,11152.00
2017-09-16T10:54:04.027Z,8768.00
2017-09-16T10:55:03.537Z,8736.00
2017-09-16T10:56:03.522Z,40416.00
2017-09-16T10:57:03.505Z,39136.00
2017-09-16T10:58:03.487Z,41472.00
2017-09-16T10:59:03.472Z,42624.00
2017-09-16T11:00:03.453Z,41280.00
2017-09-16T11:01:03.437Z,42080.00
2017-09-16T11:02:03.423Z,9896.00
2017-09-16T11:03:03.410Z,9044.00
2017-09-16T11:04:03.389Z,10632.00
2017-09-16T11:05:03.376Z,29120.00
2017-09-16T11:06:03.357Z,41312.00
2017-09-16T11:07:03.340Z,34080.00
2017-09-16T11:08:03.323Z,44864.00
2017-09-16T11:09:03.775Z,21440.00
2017-09-16T11:10:03.290Z,8604.00
2017-09-16T11:11:03.274Z,15596.00
2017-09-16T11:12:03.262Z,7736.00
2017-09-16T11:13:03.238Z,7520.00
2017-09-16T11:14:03.225Z,7860.00
2017-09-16T11:15:03.207Z,42560.00
2017-09-16T11:16:03.189Z,42336.00
2017-09-16T11:17:03.168Z,41600.00
2017-09-16T11:18:03.152Z,16960.00
2017-09-16T11:19:03.134Z,34144.00
2017-09-16T11:20:03.117Z,10244.00
2017-09-16T11:21:03.097Z,8740.00
2017-09-16T11:22:03.080Z,17888.00
2017-09-16T11:23:03.065Z,9156.00
2017-09-16T11:24:03.046Z,9296.00
2017-09-16T11:25:03.584Z,28128.00
2017-09-16T11:26:03.010Z,27520.00
2017-09-16T11:27:02.992Z,28704.00
2017-09-16T11:28:02.989Z,21824.00
2017-09-16T11:29:02.957Z,27360.00
2017-09-16T11:30:02.941Z,27680.00
2017-09-16T11:31:02.928Z,10916.00
2017-09-16T11:32:02.904Z,6368.00
2017-09-16T11:33:02.888Z,5668.00
2017-09-16T11:34:02.869Z,5528.00
2017-09-16T11:35:02.852Z,6088.00
2017-09-16T11:36:02.834Z,20992.00
2017-09-16T11:37:02.814Z,6916.00
2017-09-16T11:38:02.796Z,7208.00
2017-09-16T11:39:02.779Z,5352.00
2017-09-16T11:40:02.765Z,4608.00
2017-09-16T11:41:02.740Z,4044.00
2017-09-16T11:42:02.721Z,3672.00
2017-09-16T11:43:02.702Z,3568.00
2017-09-16T11:44:02.682Z,3604.00
2017-09-16T11:45:02.662Z,3792.00
2017-09-16T11:46:03.151Z,4076.00
2017-09-16T11:47:02.622Z,4544.00
2017-09-16T11:48:02.600Z,5220.00
2017-09-16T11:49:02.579Z,6180.00
2017-09-16T11:50:02.558Z,14200.00
2017-09-16T11:51:02.537Z,10000.00
2017-09-16T11:52:02.511Z,9384.00
2017-09-16T11:53:02.500Z,11252.00
2017-09-16T11:54:02.471Z,29440.00
2017-09-16T11:55:02.451Z,11168.00
2017-09-16T11:56:02.451Z,41536.00
2017-09-16T11:57:02.408Z,39296.00
2017-09-16T11:58:02.386Z,35136.00
2017-09-16T11:59:02.366Z,30528.00
2017-09-16T12:00:02.344Z,5392.00
2017-09-16T12:01:02.323Z,5116.00
2017-09-16T12:02:02.302Z,5408.00
2017-09-16T12:03:02.284Z,5648.00
2017-09-16T12:04:02.259Z,5752.00
2017-09-16T12:05:02.239Z,5920.00
2017-09-16T12:06:02.220Z,6352.00
2017-09-16T12:07:02.198Z,7048.00
2017-09-16T12:08:02.178Z,8256.00
2017-09-16T12:09:02.157Z,8832.00
2017-09-16T12:10:02.134Z,7408.00
2017-09-16T12:11:02.113Z,7356.00
2017-09-16T12:12:02.129Z,9188.00
2017-09-16T12:13:02.068Z,9112.00
2017-09-16T12:14:02.049Z,8824.00
2017-09-16T12:15:02.026Z,7788.00
2017-09-16T12:16:02.006Z,7256.00
2017-09-16T12:17:01.980Z,6888.00
2017-09-16T12:18:01.960Z,6912.00
2017-09-16T12:19:01.936Z,7200.00
2017-09-16T12:20:01.916Z,7596.00
2017-09-16T12:21:01.892Z,9688.00
2017-09-16T12:22:01.873Z,11132.00
2017-09-16T12:23:01.848Z,12140.00
2017-09-16T12:24:01.830Z,9068.00
2017-09-16T12:25:01.802Z,8920.00
2017-09-16T12:26:01.782Z,8720.00
2017-09-16T12:27:01.763Z,8340.00
2017-09-16T12:28:01.737Z,7844.00